Time;durP1;ratioP1;P1;durP2;ratioP2;P2;SDS_P1;SDS_P2;PMS_P1;PMS_P2;Temp;Humidity;BMP_temperature;BMP_pressure;BME280_temperature;BME280_humidity;BME280_pressure;Samples;Min_cycle;Max_cycle;Signal;HPM_P1;HPM_P2
2024/02/11 00:02:06;;;;;;;27.08;16.85;;;;;;;6.90;100.00;94596.25;5020304;28;20042;-62
2024/02/11 00:04:32;;;;;;;25.85;16.33;;;;;;;6.88;100.00;94596.53;5019037;28;20125;-63
2024/02/11 00:06:59;;;;;;;23.02;14.20;;;;;;;6.90;100.00;94615.84;5030252;28;20037;-61
2024/02/11 00:09:27;;;;;;;23.35;14.27;;;;;;;7.00;100.00;94608.69;5022144;28;20045;-63
2024/02/11 00:11:54;;;;;;;21.60;13.02;;;;;;;6.99;100.00;94621.38;5015899;28;20042;-63
2024/02/11 00:14:21;;;;;;;18.65;11.40;;;;;;;7.03;100.00;94622.38;5022239;28;20073;-62
2024/02/11 00:16:47;;;;;;;22.80;12.48;;;;;;;7.06;100.00;94626.34;5022460;28;20051;-63
2024/02/11 00:19:14;;;;;;;17.92;11.77;;;;;;;7.01;100.00;94621.84;5025242;28;20048;-63
2024/02/11 00:21:42;;;;;;;18.77;11.35;;;;;;;7.11;100.00;94639.72;5021746;28;20118;-62
2024/02/11 00:24:09;;;;;;;16.85;10.43;;;;;;;7.13;100.00;94636.72;5021547;28;20053;-63
2024/02/11 00:26:35;;;;;;;16.98;10.70;;;;;;;7.18;100.00;94633.94;5024956;28;20044;-62
2024/02/11 00:29:01;;;;;;;16.02;9.85;;;;;;;7.23;100.00;94627.66;5024225;28;20044;-62
2024/02/11 00:31:28;;;;;;;17.50;10.60;;;;;;;7.26;100.00;94625.16;5022708;28;20087;-63
2024/02/11 00:33:56;;;;;;;16.92;10.65;;;;;;;7.29;100.00;94624.56;5022890;28;20045;-63
2024/02/11 00:36:23;;;;;;;18.67;10.98;;;;;;;7.33;100.00;94616.69;5022018;28;20045;-62
2024/02/11 00:38:50;;;;;;;20.20;10.55;;;;;;;7.35;100.00;94611.81;5019030;28;20049;-63
2024/02/11 00:41:16;;;;;;;17.48;11.18;;;;;;;7.40;100.00;94611.72;5023892;28;20029;-62
2024/02/11 00:43:43;;;;;;;16.75;11.27;;;;;;;7.39;100.00;94602.06;5029337;28;20516;-63
2024/02/11 00:46:10;;;;;;;18.00;11.48;;;;;;;7.45;100.00;94605.44;5022860;28;20041;-63
2024/02/11 00:48:36;;;;;;;21.05;13.13;;;;;;;7.46;100.00;94601.66;5019008;28;20053;-61
2024/02/11 00:51:03;;;;;;;21.85;13.27;;;;;;;7.51;100.00;94600.72;5016232;28;20515;-63
2024/02/11 00:53:30;;;;;;;20.95;11.82;;;;;;;7.52;100.00;94595.03;5021679;28;20045;-62
2024/02/11 00:55:56;;;;;;;19.35;12.13;;;;;;;7.54;100.00;94594.75;5025332;28;20037;-62
2024/02/11 00:58:23;;;;;;;17.88;10.93;;;;;;;7.53;100.00;94596.63;5025090;28;20053;-63
2024/02/11 01:00:49;;;;;;;17.05;11.77;;;;;;;7.55;100.00;94594.44;5018994;28;20052;-63
2024/02/11 01:03:16;;;;;;;19.77;12.18;;;;;;;7.54;100.00;94587.47;5024126;28;20768;-62
2024/02/11 01:05:43;;;;;;;17.02;11.57;;;;;;;7.59;100.00;94599.25;5021295;28;20047;-63
2024/02/11 01:08:11;;;;;;;17.42;10.95;;;;;;;7.55;100.00;94602.53;5020022;28;20499;-62
2024/02/11 01:10:38;;;;;;;17.70;11.30;;;;;;;7.59;100.00;94593.84;5025479;28;20041;-60
2024/02/11 01:13:05;;;;;;;18.73;10.65;;;;;;;7.62;100.00;94599.44;5021771;28;20116;-61
2024/02/11 01:15:32;;;;;;;15.52;10.68;;;;;;;7.59;100.00;94605.41;5022016;28;20037;-62
2024/02/11 01:17:58;;;;;;;19.17;10.88;;;;;;;7.59;100.00;94610.78;5023444;28;20068;-60
2024/02/11 01:20:25;;;;;;;20.48;10.65;;;;;;;7.59;100.00;94616.19;5028657;28;20049;-60
2024/02/11 01:22:54;;;;;;;17.20;10.50;;;;;;;7.61;100.00;94616.69;5012801;28;20044;-63
2024/02/11 01:25:22;;;;;;;16.55;10.90;;;;;;;7.57;100.00;94618.38;5017995;28;20037;-60
2024/02/11 01:27:49;;;;;;;16.13;10.05;;;;;;;7.58;100.00;94619.16;5022878;28;20049;-62
2024/02/11 01:30:21;;;;;;;16.88;10.27;;;;;;;7.55;100.00;94621.38;5020389;28;20045;-63
2024/02/11 01:32:48;;;;;;;18.90;10.32;;;;;;;7.57;100.00;94617.56;5024841;28;20045;-63
2024/02/11 01:35:15;;;;;;;15.45;9.05;;;;;;;7.59;100.00;94636.94;5029427;28;20045;-63
2024/02/11 01:37:43;;;;;;;14.98;10.05;;;;;;;7.60;100.00;94652.81;5023258;28;20072;-63
2024/02/11 01:40:21;;;;;;;16.00;10.50;;;;;;;7.51;100.00;94646.50;5022449;28;20049;-63
2024/02/11 01:42:48;;;;;;;16.67;10.30;;;;;;;7.48;100.00;94639.81;5032001;28;20049;-62
2024/02/11 01:45:17;;;;;;;16.10;9.57;;;;;;;7.42;100.00;94639.13;5028024;28;20045;-62
2024/02/11 01:47:45;;;;;;;15.95;9.13;;;;;;;7.41;100.00;94637.53;5023694;28;20041;-61
2024/02/11 01:50:16;;;;;;;15.50;9.43;;;;;;;7.45;100.00;94656.59;5024849;28;20742;-60
2024/02/11 01:52:45;;;;;;;16.17;9.20;;;;;;;7.45;100.00;94670.06;5022935;28;20468;-60
2024/02/11 01:55:12;;;;;;;15.80;10.10;;;;;;;7.45;100.00;94672.75;5025996;28;20123;-63
2024/02/11 01:57:42;;;;;;;13.68;8.73;;;;;;;7.44;100.00;94675.72;5024550;28;20107;-62
2024/02/11 02:00:11;;;;;;;16.77;9.40;;;;;;;7.41;100.00;94671.75;5024245;28;20713;-62
2024/02/11 02:02:38;;;;;;;14.25;9.40;;;;;;;7.39;100.00;94672.03;5021653;28;20041;-62
2024/02/11 02:05:07;;;;;;;17.98;10.38;;;;;;;7.33;100.00;94678.59;5016028;28;20621;-63
2024/02/11 02:07:34;;;;;;;20.35;10.50;;;;;;;7.30;100.00;94692.69;5015141;28;20502;-61
2024/02/11 02:10:01;;;;;;;16.83;10.63;;;;;;;7.34;100.00;94696.34;5031352;28;20521;-60
2024/02/11 02:12:28;;;;;;;20.52;10.13;;;;;;;7.38;100.00;94704.63;5024691;28;20065;-61
2024/02/11 02:14:55;;;;;;;14.38;9.25;;;;;;;7.43;100.00;94693.78;5022357;28;20042;-63
2024/02/11 02:17:21;;;;;;;16.27;9.57;;;;;;;7.52;100.00;94693.88;5028569;28;20048;-61
2024/02/11 02:19:48;;;;;;;14.73;9.60;;;;;;;7.61;100.00;94685.91;5021608;28;20038;-63
2024/02/11 02:22:14;;;;;;;11.50;8.40;;;;;;;7.68;100.00;94662.84;5018318;28;20124;-62
2024/02/11 02:24:41;;;;;;;13.00;8.68;;;;;;;7.67;100.00;94658.56;5034515;28;20069;-62
2024/02/11 02:27:08;;;;;;;12.45;8.10;;;;;;;7.57;100.00;94657.97;5030730;28;20120;-61
2024/02/11 02:29:34;;;;;;;13.10;8.73;;;;;;;7.46;100.00;94663.56;5021592;28;20049;-63
2024/02/11 02:32:01;;;;;;;12.98;8.57;;;;;;;7.42;100.00;94674.13;5020875;28;20034;-63
2024/02/11 02:34:28;;;;;;;12.18;8.52;;;;;;;7.40;100.00;94673.63;5021079;28;20533;-63
2024/02/11 02:36:54;;;;;;;13.13;8.52;;;;;;;7.32;100.00;94686.97;5021364;28;20087;-63
2024/02/11 02:39:22;;;;;;;11.23;5.78;;;;;;;7.35;100.00;94702.53;5022800;28;20042;-61
2024/02/11 02:41:49;;;;;;;8.15;4.85;;;;;;;7.39;100.00;94693.56;5020402;28;20038;-62
2024/02/11 02:44:16;;;;;;;8.10;4.15;;;;;;;7.41;100.00;94690.59;5022084;28;20045;-62
2024/02/11 02:46:42;;;;;;;6.28;3.55;;;;;;;7.29;100.00;94674.91;5022170;28;20041;-61
2024/02/11 02:49:09;;;;;;;3.67;1.83;;;;;;;7.21;100.00;94662.94;5025735;28;20041;-63
2024/02/11 02:51:35;;;;;;;3.22;1.65;;;;;;;7.12;100.00;94673.59;5017520;28;20587;-63
2024/02/11 02:54:03;;;;;;;3.05;1.30;;;;;;;7.05;100.00;94673.19;5018695;28;20048;-62
2024/02/11 02:56:32;;;;;;;1.88;0.85;;;;;;;6.92;100.00;94665.91;5033756;28;20526;-62
2024/02/11 02:58:58;;;;;;;2.20;0.80;;;;;;;6.78;100.00;94669.31;5022638;28;20061;-61
2024/02/11 03:01:29;;;;;;;0.98;0.50;;;;;;;6.58;100.00;94667.75;5029643;28;20037;-61
2024/02/11 03:04:00;;;;;;;0.68;0.40;;;;;;;6.42;100.00;94675.28;5024286;28;20056;-62
2024/02/11 03:06:26;;;;;;;0.10;0.10;;;;;;;6.31;100.00;94688.06;5018919;28;20483;-62
2024/02/11 03:08:53;;;;;;;0.30;0.10;;;;;;;6.13;100.00;94687.78;5022788;28;20128;-62
2024/02/11 03:11:20;;;;;;;0.20;0.20;;;;;;;6.02;100.00;94687.09;5025162;28;20111;-62
2024/02/11 03:13:46;;;;;;;0.45;0.15;;;;;;;5.95;100.00;94694.69;5016235;28;20095;-59
2024/02/11 03:16:16;;;;;;;0.30;0.10;;;;;;;5.84;100.00;94696.72;5016043;28;20038;-59
2024/02/11 03:18:43;;;;;;;0.17;0.10;;;;;;;5.78;100.00;94701.34;5023983;28;20811;-61
2024/02/11 03:21:10;;;;;;;0.20;0.10;;;;;;;5.71;100.00;94708.94;5024379;28;20072;-61
2024/02/11 03:23:37;;;;;;;0.32;0.10;;;;;;;5.59;100.00;94715.53;5017363;28;20044;-60
2024/02/11 03:26:13;;;;;;;0.25;0.20;;;;;;;5.57;100.00;94719.56;5027394;28;20057;-61
2024/02/11 03:28:40;;;;;;;0.10;0.10;;;;;;;5.45;100.00;94722.63;5024073;28;20053;-62
2024/02/11 03:31:07;;;;;;;0.10;0.10;;;;;;;5.35;100.00;94728.94;5020459;28;20041;-61
2024/02/11 03:33:34;;;;;;;0.20;0.20;;;;;;;5.24;100.00;94728.22;5023077;28;20037;-62
2024/02/11 03:36:03;;;;;;;0.20;0.20;;;;;;;5.18;100.00;94740.88;5022257;28;20557;-61
2024/02/11 03:38:29;;;;;;;1.27;0.20;;;;;;;5.14;100.00;94739.03;5024638;28;20672;-60
2024/02/11 03:40:56;;;;;;;0.65;0.35;;;;;;;5.08;100.00;94749.81;5026132;28;20856;-62
2024/02/11 03:43:23;;;;;;;0.80;0.30;;;;;;;5.07;100.00;94750.09;5022709;28;20039;-61
2024/02/11 03:45:50;;;;;;;0.20;0.20;;;;;;;4.99;100.00;94754.19;5024579;28;20102;-61
2024/02/11 03:48:20;;;;;;;2.17;0.38;;;;;;;5.02;100.00;94755.50;5032110;28;20040;-62
2024/02/11 03:50:47;;;;;;;0.30;0.30;;;;;;;4.97;100.00;94756.34;5021276;28;20432;-62
2024/02/11 03:53:20;;;;;;;1.17;0.43;;;;;;;4.96;100.00;94762.78;5019455;28;20038;-62
2024/02/11 03:55:47;;;;;;;0.40;0.32;;;;;;;4.92;100.00;94764.44;5017413;28;20064;-61
2024/02/11 03:58:14;;;;;;;0.30;0.30;;;;;;;4.99;100.00;94781.00;5016382;28;20655;-61
2024/02/11 04:00:44;;;;;;;0.30;0.30;;;;;;;4.93;100.00;94772.19;5028120;28;20124;-61
2024/02/11 04:03:16;;;;;;;0.32;0.20;;;;;;;4.78;100.00;94775.78;5026603;28;20034;-61
2024/02/11 04:05:48;;;;;;;0.30;0.30;;;;;;;4.86;100.00;94787.00;5018676;28;20045;-61
2024/02/11 04:08:15;;;;;;;0.60;0.40;;;;;;;4.88;100.00;94787.53;5020484;28;20102;-59
2024/02/11 04:10:42;;;;;;;0.50;0.40;;;;;;;4.78;100.00;94786.53;5026118;28;20110;-62
2024/02/11 04:13:09;;;;;;;0.90;0.50;;;;;;;4.82;100.00;94790.25;5025274;28;20103;-60
2024/02/11 04:15:37;;;;;;;1.33;0.60;;;;;;;4.69;100.00;94790.88;5026353;28;20034;-61
2024/02/11 04:18:10;;;;;;;1.67;0.68;;;;;;;4.64;100.00;94788.22;5021446;28;20037;-61
2024/02/11 04:20:37;;;;;;;1.35;0.50;;;;;;;4.65;100.00;94795.19;5017360;28;20409;-60
2024/02/11 04:23:04;;;;;;;1.33;0.70;;;;;;;4.60;100.00;94795.22;5020983;28;20635;-61
2024/02/11 04:25:34;;;;;;;2.45;0.93;;;;;;;4.62;100.00;94801.09;5027907;28;20042;-61
2024/02/11 04:28:07;;;;;;;1.40;0.70;;;;;;;4.46;100.00;94800.38;5021419;28;20045;-61
2024/02/11 04:30:37;;;;;;;1.63;0.73;;;;;;;4.53;100.00;94793.63;5014805;28;20045;-60
2024/02/11 04:33:06;;;;;;;0.75;0.50;;;;;;;4.59;100.00;94796.28;5018481;28;20048;-58
2024/02/11 04:35:35;;;;;;;0.60;0.40;;;;;;;4.50;100.00;94796.88;5022256;28;20045;-62
2024/02/11 04:38:12;;;;;;;1.42;0.80;;;;;;;4.47;100.00;94805.47;5025128;28;20480;-62
2024/02/11 04:40:41;;;;;;;3.00;0.80;;;;;;;4.48;100.00;94807.06;5032339;28;20042;-62
2024/02/11 04:43:07;;;;;;;1.95;0.80;;;;;;;4.51;100.00;94811.06;5027967;28;20029;-61
2024/02/11 04:45:37;;;;;;;1.30;0.60;;;;;;;4.52;100.00;94813.47;5016481;28;20045;-62
2024/02/11 04:48:04;;;;;;;2.20;0.75;;;;;;;4.45;100.00;94814.88;5023872;28;20061;-61
2024/02/11 04:50:34;;;;;;;1.63;0.80;;;;;;;4.39;100.00;94817.56;5022786;28;20065;-62
2024/02/11 04:53:07;;;;;;;1.33;0.55;;;;;;;4.43;100.00;94813.25;5034284;28;20500;-62
2024/02/11 04:55:40;;;;;;;1.27;0.63;;;;;;;4.54;100.00;94822.03;5030923;28;20401;-62
2024/02/11 04:58:15;;;;;;;1.67;0.75;;;;;;;4.47;100.00;94824.22;5023863;28;20042;-61
2024/02/11 05:00:49;;;;;;;1.15;0.38;;;;;;;4.39;100.00;94825.59;5027167;28;20060;-61
2024/02/11 05:03:18;;;;;;;;;;;;;;;4.42;100.00;94819.69;5030209;28;20076;-61
2024/02/11 05:05:52;;;;;;;3.08;0.60;;;;;;;4.34;100.00;94825.63;5023170;28;19936;-61
2024/02/11 05:08:22;;;;;;;1.10;0.60;;;;;;;4.36;100.00;94823.47;5030106;28;20052;-61
2024/02/11 05:10:51;;;;;;;2.30;0.70;;;;;;;4.36;100.00;94828.03;5032564;28;20126;-61
2024/02/11 05:13:22;;;;;;;2.25;0.73;;;;;;;4.32;100.00;94835.81;5018214;28;20311;-60
2024/02/11 05:15:49;;;;;;;2.05;0.70;;;;;;;4.41;100.00;94831.50;5025931;28;20049;-61
2024/02/11 05:18:15;;;;;;;1.70;0.82;;;;;;;4.30;100.00;94843.31;5033730;28;20099;-62
2024/02/11 05:20:42;;;;;;;0.82;0.40;;;;;;;4.33;100.00;94844.63;5029951;28;20549;-62
2024/02/11 05:23:10;;;;;;;0.85;0.50;;;;;;;4.21;100.00;94853.81;5026237;28;20132;-62
2024/02/11 05:25:39;;;;;;;1.42;0.60;;;;;;;4.18;100.00;94857.03;5019356;28;20041;-62
2024/02/11 05:28:09;;;;;;;3.28;0.80;;;;;;;4.08;100.00;94865.91;5028267;28;20085;-62
2024/02/11 05:30:38;;;;;;;1.33;0.70;;;;;;;4.11;100.00;94868.03;5034120;28;20460;-61
2024/02/11 05:33:06;;;;;;;3.13;0.93;;;;;;;4.23;100.00;94866.91;5034487;28;20041;-61
2024/02/11 05:35:39;;;;;;;2.92;0.85;;;;;;;4.36;100.00;94860.19;5022479;28;20045;-62
2024/02/11 05:38:08;;;;;;;2.25;0.70;;;;;;;4.28;100.00;94866.91;5031630;28;20090;-60
2024/02/11 05:40:38;;;;;;;4.00;1.02;;;;;;;4.29;100.00;94869.31;5026177;28;20037;-60
2024/02/11 05:43:09;;;;;;;2.22;1.05;;;;;;;4.16;100.00;94878.72;5038404;28;20037;-61
2024/02/11 05:45:40;;;;;;;1.17;0.88;;;;;;;4.31;100.00;94878.97;5029802;28;20085;-60
2024/02/11 05:48:07;;;;;;;2.00;0.90;;;;;;;4.29;100.00;94876.53;5024265;28;20040;-60
2024/02/11 05:50:34;;;;;;;0.98;0.70;;;;;;;4.51;100.00;94870.03;5023803;28;20670;-62
2024/02/11 05:53:01;;;;;;;1.75;0.70;;;;;;;4.45;100.00;94871.94;5027105;28;20033;-59
2024/02/11 05:55:28;;;;;;;1.50;0.77;;;;;;;4.32;100.00;94878.69;5028608;28;20076;-61
2024/02/11 05:57:54;;;;;;;1.15;0.50;;;;;;;4.23;100.00;94883.78;5032466;28;20047;-61
2024/02/11 06:00:24;;;;;;;1.55;0.73;;;;;;;4.40;100.00;94888.03;5022724;28;20049;-59
2024/02/11 06:02:53;;;;;;;2.42;0.82;;;;;;;4.35;100.00;94880.00;5018409;28;20044;-62
2024/02/11 06:05:21;;;;;;;4.47;1.10;;;;;;;4.18;100.00;94886.50;5021563;28;20048;-63
2024/02/11 06:07:50;;;;;;;2.30;1.00;;;;;;;4.19;100.00;94904.16;5028341;28;20069;-61
2024/02/11 06:10:18;;;;;;;2.92;1.10;;;;;;;4.21;100.00;94923.47;5030863;28;20033;-61
2024/02/11 06:12:46;;;;;;;2.25;1.13;;;;;;;4.20;100.00;94940.56;5025940;28;20041;-61
2024/02/11 06:15:15;;;;;;;4.82;1.25;;;;;;;4.27;100.00;94967.09;5023857;28;20044;-62
2024/02/11 06:17:43;;;;;;;3.90;1.40;;;;;;;4.26;100.00;94966.31;5021241;28;20076;-62
2024/02/11 06:20:13;;;;;;;3.83;1.42;;;;;;;4.28;100.00;94944.59;5021876;28;20048;-60
2024/02/11 06:22:42;;;;;;;3.30;1.30;;;;;;;4.27;100.00;94926.91;5031566;28;20569;-61
2024/02/11 06:25:09;;;;;;;4.30;1.33;;;;;;;4.36;100.00;94961.97;5029698;28;20052;-62
2024/02/11 06:27:38;;;;;;;3.88;2.00;;;;;;;4.42;100.00;94991.19;5024045;28;20049;-63
2024/02/11 06:30:12;;;;;;;4.13;1.58;;;;;;;4.28;100.00;94987.47;5021593;28;20046;-61
2024/02/11 06:32:43;;;;;;;3.33;1.38;;;;;;;4.45;100.00;95030.03;5017392;28;20038;-62
2024/02/11 06:35:10;;;;;;;5.00;1.50;;;;;;;4.34;100.00;95023.88;5024063;28;20416;-62
2024/02/11 06:37:38;;;;;;;5.22;1.17;;;;;;;4.25;100.00;95018.28;5031084;28;20119;-62
2024/02/11 06:40:12;;;;;;;2.72;1.10;;;;;;;4.18;100.00;94993.63;5017946;28;20037;-62
2024/02/11 06:42:42;;;;;;;3.22;1.10;;;;;;;4.08;100.00;94988.28;5025134;28;20579;-61
2024/02/11 06:45:12;;;;;;;3.10;1.08;;;;;;;3.97;100.00;94972.22;5017761;28;20045;-61
2024/02/11 06:47:41;;;;;;;2.92;1.02;;;;;;;4.00;100.00;94979.72;5024461;28;20045;-60
2024/02/11 06:50:14;;;;;;;2.15;1.20;;;;;;;3.93;100.00;94983.72;5022039;28;20037;-63
2024/02/11 06:52:43;;;;;;;1.50;0.80;;;;;;;3.94;100.00;94980.78;5019759;28;20464;-57
2024/02/11 06:55:11;;;;;;;2.28;1.02;;;;;;;3.97;100.00;94990.97;5028368;28;20053;-59
2024/02/11 06:57:39;;;;;;;2.22;0.85;;;;;;;3.99;100.00;94988.84;5015438;28;20116;-58
2024/02/11 07:00:11;;;;;;;1.92;0.98;;;;;;;4.06;100.00;94993.09;5023026;28;20041;-59
2024/02/11 07:02:37;;;;;;;3.10;1.17;;;;;;;4.10;100.00;94991.50;5022842;28;20045;-59
2024/02/11 07:05:05;;;;;;;2.42;1.10;;;;;;;4.06;100.00;94985.88;5019630;28;20048;-60
2024/02/11 07:07:33;;;;;;;3.17;1.30;;;;;;;4.17;100.00;94984.00;5016898;28;20049;-58
2024/02/11 07:10:00;;;;;;;3.15;1.30;;;;;;;4.12;100.00;94978.63;5027306;28;20448;-58
2024/02/11 07:12:26;;;;;;;3.65;1.40;;;;;;;4.02;100.00;94974.88;5014835;28;20045;-56
2024/02/11 07:14:53;;;;;;;3.90;1.73;;;;;;;4.02;100.00;94982.91;5021228;28;20198;-59
2024/02/11 07:17:20;;;;;;;4.90;2.17;;;;;;;4.10;100.00;94988.81;5023570;28;20730;-59
2024/02/11 07:19:52;;;;;;;3.05;1.63;;;;;;;4.02;100.00;94998.22;5022355;28;20514;-60
2024/02/11 07:22:19;;;;;;;3.25;1.75;;;;;;;4.06;100.00;94995.78;5016909;28;20053;-60
2024/02/11 07:24:47;;;;;;;4.38;1.90;;;;;;;4.07;100.00;95006.22;5021532;28;20056;-59
2024/02/11 07:27:14;;;;;;;4.93;2.35;;;;;;;4.07;100.00;95010.78;5027819;28;20049;-56
2024/02/11 07:29:42;;;;;;;6.30;2.08;;;;;;;4.13;100.00;95015.84;5020803;28;20045;-57
2024/02/11 07:32:10;;;;;;;4.82;2.33;;;;;;;4.11;100.00;95011.84;5020286;28;20678;-60
2024/02/11 07:34:39;;;;;;;4.20;1.98;;;;;;;4.19;100.00;95013.97;5019667;28;20038;-59
2024/02/11 07:37:06;;;;;;;6.57;2.67;;;;;;;4.22;100.00;95020.66;5023090;28;20055;-58
2024/02/11 07:39:33;;;;;;;7.00;2.50;;;;;;;4.31;100.00;95026.31;5026545;28;20609;-59
2024/02/11 07:42:00;;;;;;;5.70;2.58;;;;;;;4.36;100.00;95031.66;5025083;28;20064;-59
2024/02/11 07:44:27;;;;;;;4.60;2.38;;;;;;;4.31;100.00;95023.63;5022168;28;20076;-59
2024/02/11 07:46:53;;;;;;;7.43;2.70;;;;;;;4.35;100.00;95017.44;5025739;28;20045;-59
2024/02/11 07:49:21;;;;;;;6.03;2.28;;;;;;;4.34;100.00;95017.69;5025394;28;20448;-59
2024/02/11 07:51:48;;;;;;;6.10;3.05;;;;;;;4.53;100.00;95013.38;5026221;28;20561;-59
2024/02/11 07:54:14;;;;;;;5.25;2.38;;;;;;;4.47;100.00;95016.34;5031436;28;20038;-59
2024/02/11 07:56:43;;;;;;;5.18;3.28;;;;;;;4.58;100.00;95019.81;5023858;28;20052;-58
2024/02/11 07:59:12;;;;;;;5.22;2.80;;;;;;;4.53;100.00;95010.72;5025572;28;20072;-59
2024/02/11 08:01:39;;;;;;;5.40;2.97;;;;;;;4.55;100.00;95016.63;5016398;28;20044;-51
2024/02/11 08:04:06;;;;;;;4.07;2.08;;;;;;;4.59;100.00;95014.19;5020726;28;20038;-55
2024/02/11 08:06:34;;;;;;;8.50;3.13;;;;;;;4.78;100.00;95021.63;5014898;28;20077;-52
2024/02/11 08:09:02;;;;;;;6.90;2.58;;;;;;;4.80;100.00;95014.91;5021934;28;20045;-52
2024/02/11 08:11:33;;;;;;;5.93;2.60;;;;;;;4.72;100.00;95022.72;5017526;28;20045;-51
2024/02/11 08:13:59;;;;;;;9.95;3.00;;;;;;;4.76;100.00;95016.53;5017423;28;20074;-52
2024/02/11 08:16:26;;;;;;;4.97;2.60;;;;;;;4.77;100.00;95014.66;5024400;28;20050;-59
2024/02/11 08:18:56;;;;;;;5.95;3.30;;;;;;;4.85;100.00;95016.78;5023730;28;20053;-58
2024/02/11 08:21:22;;;;;;;5.53;2.45;;;;;;;4.90;100.00;95024.03;5016632;28;20061;-58
2024/02/11 08:23:49;;;;;;;7.22;2.85;;;;;;;4.92;100.00;95030.72;5015333;28;20424;-58
2024/02/11 08:26:15;;;;;;;5.60;2.88;;;;;;;4.87;100.00;95030.72;5017447;28;20049;-60
2024/02/11 08:28:42;;;;;;;6.72;2.50;;;;;;;5.03;100.00;95031.47;5016622;28;20050;-63
2024/02/11 08:31:09;;;;;;;7.00;3.17;;;;;;;5.08;100.00;95030.66;5020932;28;20045;-58
2024/02/11 08:33:35;;;;;;;7.95;2.90;;;;;;;5.11;100.00;95037.34;5015537;28;20117;-58
2024/02/11 08:36:02;;;;;;;5.47;2.90;;;;;;;5.30;100.00;95037.53;5015081;28;20445;-59
2024/02/11 08:38:31;;;;;;;6.70;3.05;;;;;;;5.31;100.00;95031.09;5022926;28;20041;-58
2024/02/11 08:40:58;;;;;;;6.40;3.00;;;;;;;5.35;100.00;95037.53;5019480;28;20673;-57
2024/02/11 08:43:25;;;;;;;5.97;3.42;;;;;;;5.50;100.00;95042.00;5018152;28;20124;-59
2024/02/11 08:45:52;;;;;;;6.25;3.08;;;;;;;5.52;100.00;95047.06;5020519;28;20050;-59
2024/02/11 08:48:20;;;;;;;8.35;2.80;;;;;;;5.86;100.00;95059.75;5020641;28;20096;-57
2024/02/11 08:50:47;;;;;;;6.30;3.00;;;;;;;5.97;100.00;95052.47;5024348;28;20052;-58
2024/02/11 08:53:18;;;;;;;5.75;2.95;;;;;;;5.83;100.00;95047.69;5023498;28;20045;-59
2024/02/11 08:55:45;;;;;;;9.23;3.95;;;;;;;5.88;100.00;95046.06;5018543;28;20050;-59
2024/02/11 08:58:16;;;;;;;7.00;2.80;;;;;;;5.95;100.00;95046.53;5026440;28;20079;-57
2024/02/11 09:00:43;;;;;;;5.80;3.20;;;;;;;6.04;100.00;95052.16;5023778;28;20049;-57
2024/02/11 09:03:10;;;;;;;6.68;2.83;;;;;;;6.09;100.00;95052.91;5027185;28;20037;-56
2024/02/11 09:05:36;;;;;;;5.03;2.83;;;;;;;6.09;100.00;95060.97;5022490;28;20045;-59
2024/02/11 09:08:03;;;;;;;6.40;3.38;;;;;;;6.19;100.00;95070.84;5023487;28;20536;-57
2024/02/11 09:10:30;;;;;;;6.13;3.35;;;;;;;6.28;100.00;95065.69;5016435;28;20124;-59
2024/02/11 09:12:56;;;;;;;6.63;3.35;;;;;;;6.09;100.00;95065.56;5023581;28;20033;-58
2024/02/11 09:15:23;;;;;;;6.95;2.90;;;;;;;6.05;100.00;95073.34;5020632;28;20053;-59
2024/02/11 09:17:49;;;;;;;6.75;2.85;;;;;;;6.13;100.00;95071.97;5022238;28;20056;-59
2024/02/11 09:20:18;;;;;;;7.88;2.88;;;;;;;6.06;100.00;95071.47;5023628;28;20467;-58
2024/02/11 09:22:45;;;;;;;6.35;2.95;;;;;;;6.19;100.00;95073.53;5010913;28;20049;-58
2024/02/11 09:25:13;;;;;;;5.85;3.10;;;;;;;6.30;100.00;95079.63;5021839;28;20056;-58
2024/02/11 09:27:40;;;;;;;7.32;2.50;;;;;;;6.39;100.00;95079.84;5018711;28;20603;-58
2024/02/11 09:30:07;;;;;;;7.05;3.05;;;;;;;6.20;100.00;95087.78;5030576;28;20413;-59
2024/02/11 09:32:34;;;;;;;7.00;3.10;;;;;;;6.22;100.00;95083.72;5021513;28;20094;-58
2024/02/11 09:35:03;;;;;;;9.65;3.03;;;;;;;6.28;100.00;95083.69;5024577;28;20645;-59
2024/02/11 09:37:31;;;;;;;6.32;3.22;;;;;;;6.28;100.00;95084.50;5024990;28;20697;-58
2024/02/11 09:39:58;;;;;;;6.72;2.67;;;;;;;6.42;100.00;95078.47;5016902;28;20456;-56
2024/02/11 09:42:25;;;;;;;5.68;2.78;;;;;;;6.63;100.00;95076.38;5031236;28;20048;-60
2024/02/11 09:44:53;;;;;;;7.78;3.50;;;;;;;6.37;100.00;95077.44;5028052;28;20049;-60
2024/02/11 09:47:21;;;;;;;5.00;2.75;;;;;;;6.32;100.00;95080.16;5029032;28;20050;-61
2024/02/11 09:49:52;;;;;;;8.38;3.08;;;;;;;6.20;100.00;95087.78;5024228;28;20092;-60
2024/02/11 09:52:20;;;;;;;5.18;2.72;;;;;;;6.23;100.00;95084.53;5025276;28;20046;-59
2024/02/11 09:54:47;;;;;;;6.95;3.20;;;;;;;6.10;100.00;95086.78;5027895;28;20053;-58
2024/02/11 09:57:14;;;;;;;5.63;3.05;;;;;;;6.27;100.00;95092.84;5029170;28;20603;-57
2024/02/11 09:59:40;;;;;;;8.18;2.78;;;;;;;6.33;100.00;95095.19;5024595;28;20038;-55
2024/02/11 10:02:17;;;;;;;12.32;3.38;;;;;;;6.28;100.00;95106.00;5025470;28;20050;-57
2024/02/11 10:04:46;;;;;;;6.07;2.90;;;;;;;6.23;100.00;95106.03;5018113;28;20572;-56
2024/02/11 10:07:23;;;;;;;6.93;2.88;;;;;;;6.19;100.00;95108.47;5018336;28;20083;-56
2024/02/11 10:09:55;;;;;;;6.65;2.88;;;;;;;6.40;100.00;95104.81;5025010;28;20072;-58
2024/02/11 10:12:22;;;;;;;6.25;3.15;;;;;;;6.53;100.00;95106.88;5030987;28;20132;-57
2024/02/11 10:14:53;;;;;;;7.38;3.30;;;;;;;6.56;100.00;95111.66;5020538;28;20861;-59
2024/02/11 10:17:21;;;;;;;7.30;2.40;;;;;;;6.60;100.00;95112.72;5021483;28;20528;-58
2024/02/11 10:19:52;;;;;;;6.05;3.10;;;;;;;6.74;100.00;95117.44;5020584;28;20077;-58
2024/02/11 10:22:20;;;;;;;6.38;3.00;;;;;;;6.79;100.00;95125.47;5033315;28;20041;-58
2024/02/11 10:24:56;;;;;;;5.50;2.60;;;;;;;6.79;100.00;95125.47;5019199;28;20042;-59
2024/02/11 10:27:23;;;;;;;5.63;2.78;;;;;;;7.00;100.00;95125.25;5025041;28;20037;-58
2024/02/11 10:29:50;;;;;;;4.40;2.50;;;;;;;6.89;100.00;95136.13;5023446;28;20049;-59
2024/02/11 10:32:17;;;;;;;6.05;2.80;;;;;;;6.92;100.00;95145.50;5025077;28;20520;-55
2024/02/11 10:34:45;;;;;;;7.65;2.88;;;;;;;6.79;100.00;95138.94;5029091;28;20045;-55
2024/02/11 10:37:14;;;;;;;7.22;2.70;;;;;;;6.86;100.00;95144.75;5026340;28;20045;-55
2024/02/11 10:39:44;;;;;;;5.97;2.72;;;;;;;7.03;100.00;95140.84;5022075;28;20057;-55
2024/02/11 10:42:13;;;;;;;6.68;2.70;;;;;;;6.90;100.00;95139.63;5016896;28;20045;-61
2024/02/11 10:44:42;;;;;;;5.68;2.70;;;;;;;6.72;100.00;95139.25;5019806;28;20152;-58
2024/02/11 10:47:10;;;;;;;6.90;2.45;;;;;;;6.72;100.00;95151.88;5019773;28;20100;-58
2024/02/11 10:49:36;;;;;;;5.53;2.60;;;;;;;6.80;100.00;95153.16;5021256;28;20040;-58
2024/02/11 10:52:10;;;;;;;4.78;2.17;;;;;;;6.85;100.00;95150.41;5016508;28;20054;-56
2024/02/11 10:54:41;;;;;;;5.25;2.35;;;;;;;6.95;100.00;95158.41;5024632;28;20684;-58
2024/02/11 10:57:13;;;;;;;6.15;2.90;;;;;;;6.84;100.00;95155.00;5028242;28;20124;-54
2024/02/11 10:59:45;;;;;;;;;;;;;;;7.14;100.00;95161.19;5022109;28;20410;-56
2024/02/11 11:02:14;;;;;;;6.22;2.50;;;;;;;7.10;100.00;95159.34;5019211;28;19929;-56
2024/02/11 11:04:44;;;;;;;4.38;2.47;;;;;;;7.24;100.00;95159.47;5022802;28;20069;-55
2024/02/11 11:07:15;;;;;;;6.18;2.38;;;;;;;7.47;100.00;95152.50;5015388;28;20128;-56
2024/02/11 11:09:45;;;;;;;7.35;3.28;;;;;;;7.66;100.00;95155.25;5021348;28;20049;-56
2024/02/11 11:12:15;;;;;;;6.13;2.40;;;;;;;7.66;100.00;95154.44;5024134;28;20045;-58
2024/02/11 11:14:45;;;;;;;3.58;1.65;;;;;;;7.75;100.00;95154.59;5021226;28;20075;-58
2024/02/11 11:17:20;;;;;;;4.60;2.17;;;;;;;7.78;100.00;95154.03;5020449;28;20056;-58
2024/02/11 11:19:48;;;;;;;3.80;1.85;;;;;;;8.01;100.00;95148.88;5018523;28;20124;-57
2024/02/11 11:22:26;;;;;;;3.72;1.85;;;;;;;8.02;100.00;95151.28;5010322;28;20042;-56
2024/02/11 11:24:55;;;;;;;5.22;1.70;;;;;;;8.16;100.00;95150.56;5017210;28;20041;-57
2024/02/11 11:27:23;;;;;;;2.95;1.27;;;;;;;8.37;100.00;95142.97;5022586;28;20044;-58
2024/02/11 11:29:52;;;;;;;3.78;1.85;;;;;;;8.45;100.00;95144.22;5024685;28;20628;-57
2024/02/11 11:32:22;;;;;;;4.32;1.60;;;;;;;8.40;100.00;95138.91;5027144;28;20559;-58
2024/02/11 11:34:51;;;;;;;4.05;2.05;;;;;;;8.18;100.00;95142.97;5025221;28;20042;-54
2024/02/11 11:37:18;;;;;;;3.35;1.40;;;;;;;8.29;100.00;95138.25;5020420;28;20060;-57